Time;durP1;ratioP1;P1;durP2;ratioP2;P2;SDS_P1;SDS_P2;PMS_P1;PMS_P2;Temp;Humidity;BMP_temperature;BMP_pressure;BME280_temperature;BME280_humidity;BME280_pressure;Samples;Min_cycle;Max_cycle;Signal;HPM_P1;HPM_P2
2021/10/14 00:02:09;;;;;;;20.02;9.43;;;;;;;;;;5095237;28;20122;-76
2021/10/14 00:04:34;;;;;;;15.65;8.57;;;;;;;;;;5097098;28;20036;-76
2021/10/14 00:07:00;;;;;;;15.15;9.10;;;;;;;;;;5096869;28;20084;-76
2021/10/14 00:09:25;;;;;;;15.13;7.75;;;;;;;;;;5095031;28;20032;-76
2021/10/14 00:11:54;;;;;;;16.30;7.90;;;;;;;;;;5096666;28;20075;-76
2021/10/14 00:14:19;;;;;;;22.67;8.95;;;;;;;;;;5096760;28;20474;-76
2021/10/14 00:16:44;;;;;;;18.05;6.93;;;;;;;;;;5096327;28;20035;-75
2021/10/14 00:19:10;;;;;;;14.95;7.25;;;;;;;;;;5095807;28;20039;-76
2021/10/14 00:21:35;;;;;;;12.55;7.20;;;;;;;;;;5095348;28;20090;-76
2021/10/14 00:24:00;;;;;;;13.55;6.85;;;;;;;;;;5094885;28;20043;-76
2021/10/14 00:26:26;;;;;;;14.23;7.30;;;;;;;;;;5094817;28;20039;-76
2021/10/14 00:28:51;;;;;;;13.43;7.38;;;;;;;;;;5095472;28;20467;-76
2021/10/14 00:31:17;;;;;;;12.13;6.00;;;;;;;;;;5096171;28;20111;-76
2021/10/14 00:33:42;;;;;;;16.98;7.18;;;;;;;;;;5096120;28;20093;-76
2021/10/14 00:36:07;;;;;;;14.65;6.40;;;;;;;;;;5096732;28;20035;-76
2021/10/14 00:38:33;;;;;;;10.90;6.68;;;;;;;;;;5094804;28;20144;-77
2021/10/14 00:40:58;;;;;;;14.18;6.15;;;;;;;;;;5094760;28;20036;-76
2021/10/14 00:43:23;;;;;;;10.60;5.57;;;;;;;;;;5094648;28;20043;-76
2021/10/14 00:45:49;;;;;;;11.73;5.10;;;;;;;;;;5094397;28;20032;-76
2021/10/14 00:48:14;;;;;;;9.88;5.32;;;;;;;;;;5093585;28;20024;-76
2021/10/14 00:50:40;;;;;;;11.93;4.65;;;;;;;;;;5094264;28;20373;-76
2021/10/14 00:53:06;;;;;;;16.73;6.50;;;;;;;;;;5088291;28;20074;-76
2021/10/14 00:55:32;;;;;;;12.02;5.00;;;;;;;;;;5074710;28;20041;-76
2021/10/14 00:57:57;;;;;;;10.45;5.57;;;;;;;;;;5074328;28;20120;-76
2021/10/14 01:00:24;;;;;;;9.15;5.28;;;;;;;;;;5073958;28;20040;-76
2021/10/14 01:02:49;;;;;;;9.55;5.22;;;;;;;;;;5074557;28;20040;-76
2021/10/14 01:05:14;;;;;;;12.00;5.22;;;;;;;;;;5074613;28;20032;-76
2021/10/14 01:07:40;;;;;;;14.60;5.22;;;;;;;;;;5074388;28;20375;-76
2021/10/14 01:10:06;;;;;;;7.65;4.60;;;;;;;;;;5074057;28;20033;-76
2021/10/14 01:12:33;;;;;;;10.05;4.65;;;;;;;;;;5080532;28;20031;-76
2021/10/14 01:14:59;;;;;;;14.45;5.40;;;;;;;;;;5091993;28;20040;-76
2021/10/14 01:17:24;;;;;;;11.93;5.45;;;;;;;;;;5092473;28;20039;-76
2021/10/14 01:19:49;;;;;;;12.52;5.75;;;;;;;;;;5093126;28;20408;-76
2021/10/14 01:22:15;;;;;;;11.57;4.78;;;;;;;;;;5093486;28;20052;-76
2021/10/14 01:24:40;;;;;;;11.82;6.00;;;;;;;;;;5093532;28;20044;-76
2021/10/14 01:27:08;;;;;;;13.05;5.65;;;;;;;;;;5093806;28;20020;-77
2021/10/14 01:29:34;;;;;;;10.07;6.22;;;;;;;;;;5092581;28;20056;-76
2021/10/14 01:32:01;;;;;;;15.57;6.50;;;;;;;;;;5093218;28;20032;-76
2021/10/14 01:34:26;;;;;;;9.63;5.43;;;;;;;;;;5092243;28;20036;-77
2021/10/14 01:36:51;;;;;;;12.82;6.05;;;;;;;;;;5091528;28;20054;-77
2021/10/14 01:39:17;;;;;;;13.93;5.50;;;;;;;;;;5052113;28;1172221;-76
2021/10/14 01:41:47;;;;;;;9.57;6.00;;;;;;;;;;5093815;28;20437;-76
2021/10/14 01:44:14;;;;;;;9.88;5.40;;;;;;;;;;5094367;28;20040;-77
2021/10/14 01:46:39;;;;;;;15.20;5.72;;;;;;;;;;5094120;28;20168;-77
2021/10/14 01:49:05;;;;;;;10.07;5.35;;;;;;;;;;5094318;28;20063;-77
2021/10/14 01:51:31;;;;;;;12.02;6.20;;;;;;;;;;5094599;28;20110;-77
2021/10/14 01:53:56;;;;;;;10.65;5.63;;;;;;;;;;5094357;28;20401;-77
2021/10/14 01:56:21;;;;;;;12.57;6.07;;;;;;;;;;5094493;28;20074;-77
2021/10/14 01:58:47;;;;;;;11.32;6.57;;;;;;;;;;5093998;28;20032;-76
2021/10/14 02:01:12;;;;;;;14.48;7.18;;;;;;;;;;5094313;28;20036;-76
2021/10/14 02:03:37;;;;;;;10.73;6.70;;;;;;;;;;5094640;28;20032;-76
2021/10/14 02:06:03;;;;;;;12.23;6.88;;;;;;;;;;5092444;28;20040;-77
2021/10/14 02:08:28;;;;;;;16.77;7.47;;;;;;;;;;5093610;28;20055;-77
2021/10/14 02:10:54;;;;;;;11.48;7.03;;;;;;;;;;5094363;28;20082;-77
2021/10/14 02:13:19;;;;;;;18.23;8.05;;;;;;;;;;5094406;28;20058;-76
2021/10/14 02:15:44;;;;;;;12.40;7.97;;;;;;;;;;5093359;28;20032;-76
2021/10/14 02:18:10;;;;;;;15.80;8.27;;;;;;;;;;5093310;28;20036;-77
2021/10/14 02:20:35;;;;;;;16.02;7.53;;;;;;;;;;5093692;28;20043;-77
2021/10/14 02:23:01;;;;;;;16.80;8.95;;;;;;;;;;5094265;28;20028;-77
2021/10/14 02:25:27;;;;;;;14.05;7.88;;;;;;;;;;5093977;28;20527;-76
2021/10/14 02:27:52;;;;;;;14.60;8.43;;;;;;;;;;5093950;28;20043;-76
2021/10/14 02:30:18;;;;;;;15.98;8.88;;;;;;;;;;5092865;28;20036;-77
2021/10/14 02:32:43;;;;;;;13.90;8.85;;;;;;;;;;5094423;28;20042;-77
2021/10/14 02:35:09;;;;;;;20.80;9.15;;;;;;;;;;5093563;28;20084;-77
2021/10/14 02:37:35;;;;;;;13.45;8.63;;;;;;;;;;5093731;28;20058;-76
2021/10/14 02:40:01;;;;;;;14.88;8.48;;;;;;;;;;5092505;28;20072;-76
2021/10/14 02:42:26;;;;;;;11.38;8.52;;;;;;;;;;5093125;28;20035;-76
2021/10/14 02:44:52;;;;;;;13.18;8.98;;;;;;;;;;5092680;28;20575;-77
2021/10/14 02:47:17;;;;;;;12.77;8.07;;;;;;;;;;5092380;28;20060;-76
2021/10/14 02:49:42;;;;;;;15.25;8.25;;;;;;;;;;5093650;28;20062;-77
2021/10/14 02:52:08;;;;;;;15.77;8.18;;;;;;;;;;5092873;28;20032;-78
2021/10/14 02:54:33;;;;;;;12.13;7.63;;;;;;;;;;5095469;28;20036;-80
2021/10/14 02:56:59;;;;;;;17.45;8.77;;;;;;;;;;5103313;28;20046;-80
2021/10/14 02:59:25;;;;;;;15.02;8.45;;;;;;;;;;5102797;28;20032;-81
2021/10/14 03:01:50;;;;;;;11.07;7.57;;;;;;;;;;5098488;28;20032;-80
2021/10/14 03:04:16;;;;;;;14.13;8.55;;;;;;;;;;5099698;28;20039;-80
2021/10/14 03:06:41;;;;;;;10.23;7.18;;;;;;;;;;5098881;28;20057;-79
2021/10/14 03:09:07;;;;;;;16.00;8.15;;;;;;;;;;5092146;28;20031;-79
2021/10/14 03:11:32;;;;;;;15.90;7.35;;;;;;;;;;5078886;28;20033;-78
2021/10/14 03:13:58;;;;;;;18.02;8.65;;;;;;;;;;5115202;28;20139;-78
2021/10/14 03:16:23;;;;;;;13.07;8.20;;;;;;;;;;5119584;28;20032;-78
2021/10/14 03:18:48;;;;;;;9.00;7.03;;;;;;;;;;5117601;28;20043;-78
2021/10/14 03:21:15;;;;;;;9.45;6.18;;;;;;;;;;5119232;28;20039;-79
2021/10/14 03:23:40;;;;;;;13.35;6.90;;;;;;;;;;5119185;28;20491;-78
2021/10/14 03:26:06;;;;;;;11.07;6.28;;;;;;;;;;5119650;28;20035;-78
2021/10/14 03:28:31;;;;;;;10.20;6.18;;;;;;;;;;5118981;28;20035;-78
2021/10/14 03:30:57;;;;;;;6.38;5.28;;;;;;;;;;5119099;28;20031;-78
2021/10/14 03:33:23;;;;;;;10.25;6.07;;;;;;;;;;5119290;28;20039;-80
2021/10/14 03:35:48;;;;;;;8.18;5.47;;;;;;;;;;5118461;28;20035;-80
2021/10/14 03:38:14;;;;;;;5.82;4.68;;;;;;;;;;5119005;28;20530;-78
2021/10/14 03:40:39;;;;;;;9.18;5.95;;;;;;;;;;5118141;28;20047;-78
2021/10/14 03:43:05;;;;;;;7.30;4.97;;;;;;;;;;5105518;28;20040;-78
2021/10/14 03:45:30;;;;;;;8.18;5.00;;;;;;;;;;5096221;28;20040;-78
2021/10/14 03:47:56;;;;;;;6.85;4.78;;;;;;;;;;5096497;28;20060;-78
2021/10/14 03:50:21;;;;;;;9.20;4.35;;;;;;;;;;5097923;28;20542;-78
2021/10/14 03:52:46;;;;;;;5.78;4.03;;;;;;;;;;5098023;28;20044;-78
2021/10/14 03:55:12;;;;;;;6.70;4.20;;;;;;;;;;5098082;28;20040;-78
2021/10/14 03:57:37;;;;;;;5.22;4.05;;;;;;;;;;5097391;28;20047;-78
2021/10/14 04:00:08;;;;;;;7.57;4.22;;;;;;;;;;5097905;28;20083;-78
2021/10/14 04:02:33;;;;;;;5.25;3.80;;;;;;;;;;5096627;28;20119;-79
2021/10/14 04:04:59;;;;;;;6.10;3.80;;;;;;;;;;5097923;28;20453;-78
2021/10/14 04:07:24;;;;;;;7.38;4.00;;;;;;;;;;5097547;28;20039;-78
2021/10/14 04:09:50;;;;;;;7.80;4.10;;;;;;;;;;5081396;28;20486;-78
2021/10/14 04:12:15;;;;;;;7.88;4.78;;;;;;;;;;5074354;28;20105;-78
2021/10/14 04:14:40;;;;;;;8.20;4.97;;;;;;;;;;5076501;28;20051;-78
2021/10/14 04:17:06;;;;;;;8.60;5.15;;;;;;;;;;5076271;28;20021;-80
2021/10/14 04:19:31;;;;;;;9.95;5.25;;;;;;;;;;5076340;28;20037;-78
2021/10/14 04:21:57;;;;;;;8.85;5.10;;;;;;;;;;5076256;28;20041;-78
2021/10/14 04:24:22;;;;;;;10.43;4.88;;;;;;;;;;5076541;28;20090;-79
2021/10/14 04:26:48;;;;;;;8.75;5.32;;;;;;;;;;5075699;28;20549;-78
2021/10/14 04:29:16;;;;;;;12.55;6.15;;;;;;;;;;5075128;28;20060;-78
2021/10/14 04:31:41;;;;;;;8.88;4.57;;;;;;;;;;5074363;28;20045;-78
2021/10/14 04:34:06;;;;;;;10.40;5.15;;;;;;;;;;5078773;28;20040;-78
2021/10/14 04:36:32;;;;;;;8.07;5.80;;;;;;;;;;5080169;28;20040;-78
2021/10/14 04:38:59;;;;;;;12.50;6.47;;;;;;;;;;5085255;28;20074;-78
2021/10/14 04:41:24;;;;;;;12.52;7.57;;;;;;;;;;5099528;28;20064;-78
2021/10/14 04:43:50;;;;;;;13.52;7.07;;;;;;;;;;5098104;28;20403;-78
2021/10/14 04:46:15;;;;;;;10.57;6.47;;;;;;;;;;5100004;28;20051;-78
2021/10/14 04:48:40;;;;;;;7.82;6.20;;;;;;;;;;5098001;28;20044;-79
2021/10/14 04:51:06;;;;;;;13.48;6.03;;;;;;;;;;5099362;28;20091;-78
2021/10/14 04:53:31;;;;;;;12.05;7.40;;;;;;;;;;5098878;28;20071;-78
2021/10/14 04:55:57;;;;;;;13.52;7.60;;;;;;;;;;5099291;28;20034;-78
2021/10/14 04:58:22;;;;;;;8.25;6.35;;;;;;;;;;5099525;28;20040;-78
2021/10/14 05:00:47;;;;;;;10.45;6.85;;;;;;;;;;5098711;28;20095;-78
2021/10/14 05:03:13;;;;;;;10.52;6.93;;;;;;;;;;5099800;28;20114;-78
2021/10/14 05:05:38;;;;;;;11.80;7.10;;;;;;;;;;5098704;28;20032;-78
2021/10/14 05:08:04;;;;;;;11.38;6.80;;;;;;;;;;5099557;28;20039;-78
2021/10/14 05:10:31;;;;;;;13.98;7.90;;;;;;;;;;5099055;28;20172;-79
2021/10/14 05:12:56;;;;;;;10.65;7.45;;;;;;;;;;5098841;28;20493;-78
2021/10/14 05:15:22;;;;;;;9.30;8.10;;;;;;;;;;5101051;28;20046;-79
2021/10/14 05:17:47;;;;;;;10.07;7.18;;;;;;;;;;5101601;28;20038;-79
2021/10/14 05:20:12;;;;;;;13.35;6.88;;;;;;;;;;5100592;28;20058;-79
2021/10/14 05:22:38;;;;;;;14.07;7.55;;;;;;;;;;5101359;28;20039;-78
2021/10/14 05:25:04;;;;;;;10.57;7.47;;;;;;;;;;5101516;28;20466;-78
2021/10/14 05:27:29;;;;;;;13.18;8.15;;;;;;;;;;5100841;28;20080;-78
2021/10/14 05:29:54;;;;;;;9.35;7.18;;;;;;;;;;5099583;28;20045;-78
2021/10/14 05:32:20;;;;;;;12.38;8.00;;;;;;;;;;5100500;28;20044;-79
2021/10/14 05:34:45;;;;;;;9.43;7.15;;;;;;;;;;5099341;28;20047;-78
2021/10/14 05:37:10;;;;;;;13.40;8.18;;;;;;;;;;5099648;28;20050;-78
2021/10/14 05:39:36;;;;;;;13.23;8.07;;;;;;;;;;5088150;28;20096;-78
2021/10/14 05:42:02;;;;;;;12.57;8.80;;;;;;;;;;5077445;28;20074;-78
2021/10/14 05:44:27;;;;;;;18.45;9.15;;;;;;;;;;5077374;28;20040;-78
2021/10/14 05:46:52;;;;;;;15.65;9.88;;;;;;;;;;5078096;28;20082;-78
2021/10/14 05:49:18;;;;;;;13.80;8.38;;;;;;;;;;5076849;28;20032;-79
2021/10/14 05:51:43;;;;;;;11.60;8.45;;;;;;;;;;5074967;28;20036;-78
2021/10/14 05:54:08;;;;;;;12.55;8.52;;;;;;;;;;5088850;28;20123;-78
2021/10/14 05:56:34;;;;;;;14.02;9.02;;;;;;;;;;5096465;28;20052;-78
2021/10/14 05:59:00;;;;;;;13.10;8.43;;;;;;;;;;5096354;28;20047;-78
2021/10/14 06:01:25;;;;;;;14.45;9.68;;;;;;;;;;5099087;28;20055;-79
2021/10/14 06:03:50;;;;;;;14.65;9.43;;;;;;;;;;5117857;28;20043;-78
2021/10/14 06:06:16;;;;;;;15.02;10.15;;;;;;;;;;5117465;28;20024;-79
2021/10/14 06:08:41;;;;;;;15.18;9.18;;;;;;;;;;5115785;28;20019;-77
2021/10/14 06:11:07;;;;;;;14.13;9.90;;;;;;;;;;5116434;28;20059;-78
2021/10/14 06:13:36;;;;;;;14.25;9.13;;;;;;;;;;5115992;28;20069;-77
2021/10/14 06:16:01;;;;;;;22.65;10.02;;;;;;;;;;5116808;28;20036;-78
2021/10/14 06:18:27;;;;;;;14.85;9.90;;;;;;;;;;5115281;28;20086;-77
2021/10/14 06:20:52;;;;;;;15.77;9.30;;;;;;;;;;5115386;28;20039;-77
2021/10/14 06:23:17;;;;;;;16.85;9.60;;;;;;;;;;5116997;28;20031;-77
2021/10/14 06:25:43;;;;;;;18.92;11.80;;;;;;;;;;5117221;28;20122;-78
2021/10/14 06:28:08;;;;;;;15.18;10.95;;;;;;;;;;5115904;28;20092;-77
2021/10/14 06:30:33;;;;;;;17.35;11.90;;;;;;;;;;5116595;28;20556;-78
2021/10/14 06:33:00;;;;;;;20.38;12.25;;;;;;;;;;5116855;28;20114;-77
2021/10/14 06:35:26;;;;;;;22.40;12.57;;;;;;;;;;5095632;28;20036;-78
2021/10/14 06:37:51;;;;;;;23.13;12.32;;;;;;;;;;5075849;28;20044;-79
2021/10/14 06:40:17;;;;;;;21.67;14.45;;;;;;;;;;5076394;28;20053;-77
2021/10/14 06:42:43;;;;;;;24.85;14.63;;;;;;;;;;5075951;28;20119;-78
2021/10/14 06:45:09;;;;;;;25.88;15.65;;;;;;;;;;5075371;28;20070;-78
2021/10/14 06:47:35;;;;;;;26.13;15.85;;;;;;;;;;5075148;28;20029;-77
2021/10/14 06:50:02;;;;;;;26.80;17.27;;;;;;;;;;5074874;28;20450;-77
2021/10/14 06:52:28;;;;;;;29.35;16.60;;;;;;;;;;5076340;28;20486;-78
2021/10/14 06:54:53;;;;;;;26.55;15.93;;;;;;;;;;5117927;28;20061;-83
2021/10/14 06:57:18;;;;;;;23.67;15.30;;;;;;;;;;5116731;28;20042;-78
2021/10/14 06:59:44;;;;;;;28.98;17.38;;;;;;;;;;5115362;28;20093;-78
2021/10/14 07:02:10;;;;;;;33.75;18.60;;;;;;;;;;5117478;28;20106;-79
2021/10/14 07:04:35;;;;;;;36.03;19.33;;;;;;;;;;5121478;28;20121;-83
2021/10/14 07:07:03;;;;;;;30.02;17.30;;;;;;;;;;5120992;28;20117;-85
2021/10/14 07:09:29;;;;;;;33.70;19.50;;;;;;;;;;5111805;28;20032;-80
2021/10/14 07:12:00;;;;;;;39.55;20.83;;;;;;;;;;5100295;28;20493;-81
2021/10/14 07:14:25;;;;;;;29.08;18.30;;;;;;;;;;5100043;28;20073;-84
2021/10/14 07:16:52;;;;;;;37.13;18.45;;;;;;;;;;5101509;28;20040;-81
2021/10/14 07:19:18;;;;;;;36.75;19.67;;;;;;;;;;5099088;28;20040;-83
2021/10/14 07:21:43;;;;;;;32.75;17.45;;;;;;;;;;5100071;28;20051;-78
2021/10/14 07:24:08;;;;;;;35.75;19.40;;;;;;;;;;5097519;28;20036;-82
2021/10/14 07:26:34;;;;;;;35.10;19.02;;;;;;;;;;5097511;28;20040;-80
2021/10/14 07:29:02;;;;;;;30.20;18.90;;;;;;;;;;5097105;28;20097;-77
2021/10/14 07:31:28;;;;;;;37.53;17.52;;;;;;;;;;5094649;28;20032;-78
2021/10/14 07:33:54;;;;;;;34.10;18.95;;;;;;;;;;5095465;28;20032;-78
2021/10/14 07:36:19;;;;;;;37.30;19.75;;;;;;;;;;5092476;28;20047;-76
2021/10/14 07:38:45;;;;;;;32.28;18.30;;;;;;;;;;5092857;28;20098;-75
2021/10/14 07:41:10;;;;;;;34.83;18.52;;;;;;;;;;5092946;28;20044;-78
2021/10/14 07:43:36;;;;;;;33.90;19.30;;;;;;;;;;5100379;28;20028;-77
2021/10/14 07:46:01;;;;;;;36.92;20.50;;;;;;;;;;5093936;28;20088;-77
2021/10/14 07:48:27;;;;;;;32.67;19.83;;;;;;;;;;5096088;28;20458;-77
2021/10/14 07:50:53;;;;;;;34.90;19.90;;;;;;;;;;5097208;28;20460;-74
2021/10/14 07:53:19;;;;;;;38.45;20.65;;;;;;;;;;5092865;28;20032;-75
2021/10/14 07:55:45;;;;;;;36.65;19.15;;;;;;;;;;5093128;28;20071;-77
2021/10/14 07:58:11;;;;;;;33.70;19.45;;;;;;;;;;5092062;28;20378;-77
2021/10/14 08:00:38;;;;;;;34.00;19.13;;;;;;;;;;5094154;28;20022;-77
2021/10/14 08:03:03;;;;;;;42.55;19.90;;;;;;;;;;5094226;28;20040;-77
2021/10/14 08:05:29;;;;;;;37.90;20.70;;;;;;;;;;5093282;28;20384;-76
2021/10/14 08:07:54;;;;;;;36.38;19.20;;;;;;;;;;5095218;28;20036;-77
2021/10/14 08:10:19;;;;;;;31.25;16.63;;;;;;;;;;5095888;28;20043;-77
2021/10/14 08:12:45;;;;;;;33.55;17.05;;;;;;;;;;5096795;28;20064;-77
2021/10/14 08:15:11;;;;;;;35.97;18.38;;;;;;;;;;5097418;28;20058;-75
2021/10/14 08:17:37;;;;;;;32.28;17.98;;;;;;;;;;5096720;28;20046;-75
2021/10/14 08:20:05;;;;;;;31.02;18.10;;;;;;;;;;5095827;28;20040;-77
2021/10/14 08:22:30;;;;;;;28.23;16.65;;;;;;;;;;5096885;28;20043;-76
2021/10/14 08:24:58;;;;;;;34.65;14.98;;;;;;;;;;5096064;28;20036;-76
2021/10/14 08:27:24;;;;;;;29.25;15.02;;;;;;;;;;5095547;28;20453;-77
2021/10/14 08:29:49;;;;;;;27.58;15.95;;;;;;;;;;5099125;28;20036;-79
2021/10/14 08:32:14;;;;;;;29.45;15.18;;;;;;;;;;5100380;28;20044;-78
2021/10/14 08:34:40;;;;;;;31.65;15.88;;;;;;;;;;5107137;28;20044;-79
2021/10/14 08:37:05;;;;;;;27.98;14.20;;;;;;;;;;5104272;28;20040;-79
2021/10/14 08:39:31;;;;;;;26.80;15.05;;;;;;;;;;5104758;28;20040;-80
2021/10/14 08:41:56;;;;;;;30.08;15.80;;;;;;;;;;5108271;28;20043;-81
2021/10/14 08:44:26;;;;;;;24.00;13.98;;;;;;;;;;5103562;28;20050;-80
2021/10/14 08:46:55;;;;;;;29.85;14.93;;;;;;;;;;5102936;28;20055;-77
2021/10/14 08:49:21;;;;;;;25.50;13.90;;;;;;;;;;5099011;28;20060;-79
2021/10/14 08:51:48;;;;;;;23.70;13.15;;;;;;;;;;5100668;28;20481;-80
2021/10/14 08:54:13;;;;;;;27.70;13.50;;;;;;;;;;5099956;28;20032;-75
2021/10/14 08:56:44;;;;;;;25.98;14.20;;;;;;;;;;5097434;28;20366;-77
2021/10/14 08:59:09;;;;;;;23.30;13.50;;;;;;;;;;5097235;28;20032;-77
2021/10/14 09:01:35;;;;;;;27.45;14.38;;;;;;;;;;5097018;28;20027;-78
2021/10/14 09:04:10;;;;;;;26.50;14.27;;;;;;;;;;5096833;28;20070;-76
2021/10/14 09:06:39;;;;;;;24.80;13.38;;;;;;;;;;5095974;28;20040;-76
2021/10/14 09:09:04;;;;;;;27.25;13.68;;;;;;;;;;5095352;28;20032;-77
2021/10/14 09:11:29;;;;;;;26.10;13.50;;;;;;;;;;5095540;28;20078;-77
2021/10/14 09:14:04;;;;;;;19.00;10.82;;;;;;;;;;5095877;28;20075;-76
2021/10/14 09:16:41;;;;;;;15.52;10.52;;;;;;;;;;5095899;28;20072;-77
2021/10/14 09:19:21;;;;;;;20.95;11.77;;;;;;;;;;5095891;28;20122;-77
2021/10/14 09:21:48;;;;;;;17.63;11.27;;;;;;;;;;5097247;28;20085;-77
2021/10/14 09:24:24;;;;;;;15.10;9.55;;;;;;;;;;5096025;28;20070;-77
2021/10/14 09:26:49;;;;;;;14.57;9.18;;;;;;;;;;5094990;28;20583;-77
2021/10/14 09:29:14;;;;;;;12.75;9.30;;;;;;;;;;5095802;28;20035;-79
2021/10/14 09:31:54;;;;;;;14.25;10.25;;;;;;;;;;5097069;28;20042;-77
2021/10/14 09:34:25;;;;;;;13.73;8.90;;;;;;;;;;5097480;28;20057;-75
2021/10/14 09:36:50;;;;;;;15.00;10.32;;;;;;;;;;5095548;28;20114;-76
2021/10/14 09:39:16;;;;;;;20.98;12.75;;;;;;;;;;5093975;28;20123;-75
2021/10/14 09:41:43;;;;;;;16.30;10.65;;;;;;;;;;5095061;28;20092;-76
2021/10/14 09:44:17;;;;;;;17.33;10.02;;;;;;;;;;5095231;28;20044;-75
2021/10/14 09:46:43;;;;;;;16.17;9.40;;;;;;;;;;5095130;28;20048;-75
2021/10/14 09:49:11;;;;;;;18.98;9.88;;;;;;;;;;5095423;28;20052;-75
2021/10/14 09:51:38;;;;;;;16.73;8.93;;;;;;;;;;5093859;28;20036;-75
2021/10/14 09:54:04;;;;;;;17.10;11.15;;;;;;;;;;5094958;28;20023;-75
2021/10/14 09:56:30;;;;;;;14.45;8.90;;;;;;;;;;5094997;28;20093;-76
2021/10/14 09:58:59;;;;;;;13.07;9.77;;;;;;;;;;5093265;28;20366;-75
2021/10/14 10:01:25;;;;;;;15.43;9.85;;;;;;;;;;5095124;28;20040;-77
2021/10/14 10:03:52;;;;;;;14.00;9.02;;;;;;;;;;5094987;28;20050;-76
2021/10/14 10:06:22;;;;;;;13.60;9.35;;;;;;;;;;5095516;28;20038;-77
2021/10/14 10:08:48;;;;;;;13.07;8.73;;;;;;;;;;5096730;28;20082;-78
2021/10/14 10:11:17;;;;;;;14.75;9.18;;;;;;;;;;5094803;28;20044;-76
2021/10/14 10:13:49;;;;;;;16.10;9.65;;;;;;;;;;5096159;28;20476;-77
2021/10/14 10:16:34;;;;;;;11.73;8.48;;;;;;;;;;5096602;28;20032;-76
2021/10/14 10:19:00;;;;;;;14.43;9.45;;;;;;;;;;5097880;28;20044;-79
2021/10/14 10:21:32;;;;;;;13.25;8.88;;;;;;;;;;5095848;28;20081;-78
2021/10/14 10:24:03;;;;;;;13.15;8.48;;;;;;;;;;5097894;28;20036;-78
2021/10/14 10:29:23;;;;;;;12.10;7.82;;;;;;;;;;5095536;28;20491;-76
2021/10/14 10:31:48;;;;;;;15.45;8.40;;;;;;;;;;5094239;28;20035;-80
2021/10/14 10:35:03;;;;;;;10.02;7.38;;;;;;;;;;5095019;28;20488;-77
2021/10/14 10:40:02;;;;;;;13.02;8.10;;;;;;;;;;5096913;28;20048;-78
2021/10/14 10:42:36;;;;;;;11.20;8.35;;;;;;;;;;5096623;28;20401;-78
2021/10/14 10:45:23;;;;;;;8.70;6.60;;;;;;;;;;5096593;28;20478;-78
2021/10/14 10:47:54;;;;;;;11.00;6.65;;;;;;;;;;5097031;28;20489;-78
2021/10/14 10:50:28;;;;;;;10.52;7.50;;;;;;;;;;5096661;28;20422;-78
2021/10/14 10:53:05;;;;;;;10.57;7.60;;;;;;;;;;5097633;28;20032;-78
2021/10/14 10:55:31;;;;;;;9.95;7.57;;;;;;;;;;5099223;28;20032;-78
2021/10/14 10:57:56;;;;;;;10.63;7.30;;;;;;;;;;5098921;28;20032;-78
2021/10/14 11:00:24;;;;;;;13.95;8.07;;;;;;;;;;5101002;28;20031;-78
2021/10/14 11:03:10;;;;;;;9.57;7.60;;;;;;;;;;5118148;28;20038;-78
2021/10/14 11:05:45;;;;;;;12.05;8.65;;;;;;;;;;5119143;28;20031;-78
2021/10/14 11:08:16;;;;;;;12.45;7.28;;;;;;;;;;5118400;28;20051;-78
2021/10/14 11:10:41;;;;;;;9.68;6.97;;;;;;;;;;5118305;28;20039;-78
2021/10/14 11:13:07;;;;;;;11.60;7.78;;;;;;;;;;5104846;28;20020;-78
2021/10/14 11:15:32;;;;;;;11.70;7.80;;;;;;;;;;5098255;28;20039;-78
2021/10/14 11:18:06;;;;;;;14.20;8.00;;;;;;;;;;5099588;28;20028;-78
2021/10/14 11:20:32;;;;;;;10.30;7.57;;;;;;;;;;5099276;28;20490;-78
2021/10/14 11:23:02;;;;;;;10.05;7.50;;;;;;;;;;5099669;28;20485;-78
2021/10/14 11:25:27;;;;;;;11.25;7.72;;;;;;;;;;5099079;28;20118;-78
2021/10/14 11:28:11;;;;;;;14.15;7.90;;;;;;;;;;5098637;28;20053;-78
2021/10/14 11:30:46;;;;;;;13.15;8.38;;;;;;;;;;5097692;28;20442;-78
2021/10/14 11:33:27;;;;;;;13.60;8.67;;;;;;;;;;5097680;28;20039;-78
2021/10/14 11:36:04;;;;;;;11.77;8.85;;;;;;;;;;5097743;28;20439;-78
2021/10/14 11:38:30;;;;;;;9.82;7.57;;;;;;;;;;5096404;28;20036;-78
2021/10/14 11:40:56;;;;;;;10.90;8.70;;;;;;;;;;5097097;28;20042;-76
2021/10/14 11:43:27;;;;;;;11.25;8.43;;;;;;;;;;5096406;28;20097;-75
2021/10/14 11:45:53;;;;;;;10.20;8.40;;;;;;;;;;5097914;28;20031;-76
2021/10/14 11:48:32;;;;;;;12.75;8.57;;;;;;;;;;5097750;28;20111;-78
2021/10/14 11:51:11;;;;;;;10.35;8.45;;;;;;;;;;5100561;28;20420;-78
2021/10/14 11:53:55;;;;;;;12.73;8.30;;;;;;;;;;5102040;28;20047;-78
2021/10/14 11:56:20;;;;;;;12.32;8.85;;;;;;;;;;5101324;28;20032;-76
2021/10/14 11:58:45;;;;;;;12.52;8.93;;;;;;;;;;5097532;28;20469;-78
2021/10/14 12:01:12;;;;;;;13.93;9.27;;;;;;;;;;5100870;28;20658;-79
2021/10/14 12:03:39;;;;;;;13.02;9.30;;;;;;;;;;5097803;28;20078;-76
2021/10/14 12:06:07;;;;;;;13.82;9.43;;;;;;;;;;5097559;28;20120;-76
2021/10/14 12:08:34;;;;;;;10.95;7.95;;;;;;;;;;5090643;28;20504;-76
2021/10/14 12:10:59;;;;;;;14.13;9.45;;;;;;;;;;5097076;28;20052;-76
2021/10/14 12:13:29;;;;;;;15.73;9.65;;;;;;;;;;5097878;28;20850;-77
2021/10/14 12:16:06;;;;;;;12.40;9.20;;;;;;;;;;5118636;28;20055;-78
2021/10/14 12:18:32;;;;;;;14.23;8.65;;;;;;;;;;5118020;28;20114;-77
2021/10/14 12:20:57;;;;;;;14.23;9.32;;;;;;;;;;5117752;28;20088;-77
2021/10/14 12:23:28;;;;;;;15.65;9.98;;;;;;;;;;5117551;28;20039;-77
2021/10/14 12:26:09;;;;;;;13.63;9.35;;;;;;;;;;5117406;28;20035;-77
2021/10/14 12:28:34;;;;;;;13.10;9.57;;;;;;;;;;5106224;28;20028;-77
2021/10/14 12:31:10;;;;;;;17.60;10.13;;;;;;;;;;5096020;28;20028;-77
2021/10/14 12:33:36;;;;;;;12.73;9.48;;;;;;;;;;5096673;28;20035;-77
2021/10/14 12:36:01;;;;;;;13.73;10.07;;;;;;;;;;5096816;28;20040;-77
2021/10/14 12:38:41;;;;;;;13.38;9.07;;;;;;;;;;5096304;28;20062;-77
2021/10/14 12:41:13;;;;;;;13.30;10.63;;;;;;;;;;5076419;28;20033;-77
2021/10/14 12:48:55;;;;;;;16.92;10.40;;;;;;;;;;5076258;28;20158;-77
2021/10/14 12:51:28;;;;;;;14.15;9.77;;;;;;;;;;5076202;28;20469;-77
2021/10/14 12:54:03;;;;;;;13.40;9.48;;;;;;;;;;5075504;28;20028;-77
2021/10/14 12:56:34;;;;;;;12.80;9.30;;;;;;;;;;5076053;28;20478;-77
2021/10/14 12:59:03;;;;;;;12.60;9.65;;;;;;;;;;5088916;28;20036;-77
2021/10/14 13:01:29;;;;;;;12.57;9.57;;;;;;;;;;5095946;28;20027;-76
2021/10/14 13:03:54;;;;;;;11.20;8.65;;;;;;;;;;5096162;28;20393;-77
2021/10/14 13:06:19;;;;;;;16.13;8.63;;;;;;;;;;5095517;28;20385;-77
2021/10/14 13:08:46;;;;;;;10.90;7.85;;;;;;;;;;5095320;28;20440;-77
2021/10/14 13:11:15;;;;;;;11.32;7.90;;;;;;;;;;5094504;28;20043;-76
2021/10/14 13:13:42;;;;;;;11.35;7.28;;;;;;;;;;5095868;28;20075;-77
2021/10/14 13:16:09;;;;;;;12.48;8.48;;;;;;;;;;5095729;28;20036;-77
2021/10/14 13:18:34;;;;;;;10.05;7.65;;;;;;;;;;5095572;28;20069;-76
2021/10/14 13:21:02;;;;;;;10.52;7.72;;;;;;;;;;5095537;28;20445;-76
2021/10/14 13:23:28;;;;;;;9.73;6.72;;;;;;;;;;5094384;28;20063;-76
2021/10/14 13:25:55;;;;;;;9.15;6.22;;;;;;;;;;5094663;28;20066;-76
2021/10/14 13:28:24;;;;;;;8.57;7.35;;;;;;;;;;5095241;28;20040;-76
2021/10/14 13:30:50;;;;;;;9.45;6.80;;;;;;;;;;5095600;28;20035;-76
2021/10/14 13:33:17;;;;;;;8.73;6.63;;;;;;;;;;5094444;28;20377;-76
2021/10/14 13:35:45;;;;;;;8.35;7.25;;;;;;;;;;5094450;28;20074;-76
2021/10/14 13:38:12;;;;;;;8.52;6.53;;;;;;;;;;5095362;28;20036;-77
2021/10/14 13:40:39;;;;;;;10.75;7.28;;;;;;;;;;5076737;28;20055;-76
2021/10/14 13:43:10;;;;;;;9.07;6.70;;;;;;;;;;5095084;28;20370;-76
2021/10/14 13:45:35;;;;;;;9.75;6.85;;;;;;;;;;5094531;28;20047;-76
2021/10/14 13:48:01;;;;;;;9.98;8.18;;;;;;;;;;5095085;28;20385;-77
2021/10/14 13:50:26;;;;;;;11.52;6.95;;;;;;;;;;5094094;28;20024;-77
2021/10/14 13:52:51;;;;;;;9.05;6.57;;;;;;;;;;5094893;28;20071;-76
2021/10/14 13:55:17;;;;;;;9.48;7.35;;;;;;;;;;5095182;28;20036;-76
2021/10/14 13:57:43;;;;;;;9.43;7.00;;;;;;;;;;5093793;28;20077;-76
2021/10/14 14:00:10;;;;;;;11.68;7.35;;;;;;;;;;5094922;28;20465;-76
2021/10/14 14:02:37;;;;;;;8.95;6.47;;;;;;;;;;5093788;28;20031;-76
2021/10/14 14:05:04;;;;;;;8.55;6.78;;;;;;;;;;5093935;28;20043;-76
2021/10/14 14:07:30;;;;;;;9.98;8.20;;;;;;;;;;5094458;28;20496;-76
2021/10/14 14:09:55;;;;;;;11.60;7.57;;;;;;;;;;5093378;28;20040;-76
2021/10/14 14:12:21;;;;;;;10.85;8.02;;;;;;;;;;5093533;28;20077;-77
2021/10/14 14:14:46;;;;;;;10.48;7.63;;;;;;;;;;5094751;28;20040;-77
2021/10/14 14:17:12;;;;;;;12.00;9.73;;;;;;;;;;5094643;28;20046;-76
2021/10/14 14:19:37;;;;;;;12.50;9.45;;;;;;;;;;5094518;28;20040;-76
2021/10/14 14:22:04;;;;;;;19.02;10.93;;;;;;;;;;5094619;28;20031;-76
2021/10/14 14:24:29;;;;;;;15.88;10.65;;;;;;;;;;5094793;28;20032;-76
2021/10/14 14:26:54;;;;;;;15.20;11.95;;;;;;;;;;5093315;28;20058;-76
2021/10/14 14:29:20;;;;;;;15.07;11.77;;;;;;;;;;5094208;28;20035;-76
2021/10/14 14:31:45;;;;;;;17.95;13.05;;;;;;;;;;5094505;28;20028;-76
2021/10/14 14:34:11;;;;;;;22.55;13.73;;;;;;;;;;5094479;28;20695;-77
2021/10/14 14:36:36;;;;;;;20.35;13.80;;;;;;;;;;5094554;28;20040;-77
2021/10/14 14:39:02;;;;;;;18.58;14.05;;;;;;;;;;5093977;28;20056;-77